Time;durP1;ratioP1;P1;durP2;ratioP2;P2;SDS_P1;SDS_P2;PMS_P1;PMS_P2;Temp;Humidity;BMP_temperature;BMP_pressure;BME280_temperature;BME280_humidity;BME280_pressure;Samples;Min_cycle;Max_cycle;Signal;HPM_P1;HPM_P2
2023/07/22 00:02:20;;;;;;;15.20;5.60;;;14.40;99.90;;;;;;5075576;28;20021;-65
2023/07/22 00:04:46;;;;;;;;;;;14.40;99.90;;;;;;5074598;28;20028;-65
2023/07/22 00:07:11;;;;;;;10.83;4.63;;;14.40;99.90;;;;;;5057784;28;22970;-65
2023/07/22 00:09:38;;;;;;;9.43;5.00;;;14.40;99.90;;;;;;5070479;28;20032;-65
2023/07/22 00:12:04;;;;;;;11.98;5.68;;;14.40;99.90;;;;;;5079712;28;20406;-66
2023/07/22 00:14:30;;;;;;;14.27;6.22;;;14.40;99.90;;;;;;5078143;28;20028;-65
2023/07/22 00:16:56;;;;;;;13.77;5.75;;;14.40;99.90;;;;;;5067443;28;20662;-65
2023/07/22 00:19:23;;;;;;;12.80;6.73;;;14.40;99.90;;;;;;5059268;28;20065;-65
2023/07/22 00:21:48;;;;;;;;;;;14.40;99.90;;;;;;5061059;28;20012;-65
2023/07/22 00:24:14;;;;;;;16.77;6.65;;;14.40;99.90;;;;;;5073123;28;20214;-66
2023/07/22 00:26:41;;;;;;;13.90;6.43;;;14.40;99.90;;;;;;5073391;28;20439;-65
2023/07/22 00:29:07;;;;;;;15.38;6.78;;;14.40;99.90;;;;;;5074000;28;20482;-67
2023/07/22 00:31:33;;;;;;;15.27;6.35;;;14.40;99.90;;;;;;5068588;28;20063;-65
2023/07/22 00:33:59;;;;;;;21.30;7.50;;;14.40;99.90;;;;;;5068229;28;20557;-65
2023/07/22 00:36:25;;;;;;;16.80;6.57;;;14.40;99.90;;;;;;5064559;28;20033;-65
2023/07/22 00:38:52;;;;;;;16.08;7.70;;;14.50;99.90;;;;;;5074022;28;20020;-65
2023/07/22 00:41:18;;;;;;;;;;;14.50;99.90;;;;;;5071241;28;20028;-67
2023/07/22 00:43:44;;;;;;;15.82;6.57;;;14.50;99.90;;;;;;5062017;28;19904;-65
2023/07/22 00:46:09;;;;;;;16.87;8.07;;;14.50;99.90;;;;;;5072602;28;20025;-78
2023/07/22 00:48:36;;;;;;;16.63;7.43;;;14.50;99.90;;;;;;5073866;28;20066;-65
2023/07/22 00:51:01;;;;;;;18.08;7.45;;;14.50;99.90;;;;;;5087810;28;20490;-65
2023/07/22 00:53:28;;;;;;;19.57;8.30;;;14.50;99.90;;;;;;5089306;28;20044;-65
2023/07/22 00:55:54;;;;;;;20.58;7.97;;;14.50;99.90;;;;;;5083772;28;20115;-65
2023/07/22 00:58:21;;;;;;;18.73;8.20;;;14.40;99.90;;;;;;5091130;28;20329;-65
2023/07/22 01:00:46;;;;;;;20.33;8.13;;;14.40;99.90;;;;;;5081662;28;20028;-65
2023/07/22 01:03:12;;;;;;;19.30;8.17;;;14.40;99.90;;;;;;5094443;28;20024;-66
2023/07/22 01:05:39;;;;;;;15.23;7.15;;;14.40;99.90;;;;;;5079680;28;20017;-65
2023/07/22 01:08:05;;;;;;;14.93;7.80;;;14.40;99.90;;;;;;5093268;28;20411;-79
2023/07/22 01:10:31;;;;;;;18.55;8.10;;;14.40;99.90;;;;;;5093658;28;20031;-66
2023/07/22 01:12:57;;;;;;;21.80;8.80;;;14.40;99.90;;;;;;5094360;28;20327;-66
2023/07/22 01:15:25;;;;;;;25.43;9.03;;;14.40;99.90;;;;;;5081310;28;20025;-65
2023/07/22 01:17:51;;;;;;;19.25;9.00;;;14.40;99.90;;;;;;5093054;28;20308;-65
2023/07/22 01:20:18;;;;;;;22.02;9.32;;;14.40;99.90;;;;;;5095093;28;20039;-65
2023/07/22 01:22:53;;;;;;;20.65;9.02;;;14.50;99.90;;;;;;5081352;28;20020;-65
2023/07/22 01:25:23;;;;;;;22.85;9.43;;;14.50;99.90;;;;;;5094163;28;20020;-65
2023/07/22 01:27:50;;;;;;;25.45;9.95;;;14.40;99.90;;;;;;5093389;28;20052;-77
2023/07/22 01:30:16;;;;;;;25.38;9.80;;;14.50;99.90;;;;;;5093461;28;20028;-65
2023/07/22 01:32:42;;;;;;;20.53;8.53;;;14.40;99.90;;;;;;5092228;28;20296;-65
2023/07/22 01:35:08;;;;;;;22.70;9.80;;;14.40;99.90;;;;;;5084892;28;20017;-67
2023/07/22 01:37:35;;;;;;;20.48;9.77;;;14.50;99.90;;;;;;5088566;28;20024;-65
2023/07/22 01:40:11;;;;;;;17.55;9.15;;;14.50;99.90;;;;;;5093987;28;20024;-65
2023/07/22 01:42:36;;;;;;;20.20;9.15;;;14.40;99.90;;;;;;5092430;28;20036;-65
2023/07/22 01:45:02;;;;;;;22.57;10.23;;;14.40;99.90;;;;;;5094036;28;20035;-65
2023/07/22 01:47:28;;;;;;;21.77;9.93;;;14.40;99.90;;;;;;5094174;28;20418;-65
2023/07/22 01:49:54;;;;;;;19.23;10.77;;;14.40;99.90;;;;;;5096747;28;20040;-65
2023/07/22 01:52:20;;;;;;;24.20;10.07;;;14.40;99.90;;;;;;5091037;28;20027;-65
2023/07/22 01:54:45;;;;;;;20.63;9.57;;;14.40;99.90;;;;;;5096789;28;20028;-65
2023/07/22 01:57:11;;;;;;;18.80;9.00;;;14.40;99.90;;;;;;5097604;28;20125;-65
2023/07/22 01:59:36;;;;;;;19.80;9.40;;;14.40;99.90;;;;;;5095569;28;20035;-65
2023/07/22 02:02:02;;;;;;;22.20;9.83;;;14.50;99.90;;;;;;5083268;28;20024;-66
2023/07/22 02:04:28;;;;;;;21.77;9.53;;;14.50;99.90;;;;;;5090233;28;20024;-65
2023/07/22 02:06:53;;;;;;;21.33;9.27;;;14.50;99.90;;;;;;5082818;28;20017;-65
2023/07/22 02:09:19;;;;;;;19.53;8.93;;;14.40;99.90;;;;;;5086756;28;20028;-65
2023/07/22 02:11:45;;;;;;;25.90;10.73;;;14.50;99.90;;;;;;5093369;28;20055;-65
2023/07/22 02:14:10;;;;;;;18.47;8.97;;;14.50;99.90;;;;;;5095124;28;20020;-65
2023/07/22 02:16:37;;;;;;;20.00;9.30;;;14.50;99.90;;;;;;5084386;28;20432;-65
2023/07/22 02:19:03;;;;;;;21.08;9.35;;;14.50;99.90;;;;;;5093887;28;20024;-65
2023/07/22 02:21:29;;;;;;;22.55;9.65;;;14.50;99.90;;;;;;5079303;28;20077;-65
2023/07/22 02:23:55;;;;;;;27.10;9.17;;;14.50;99.90;;;;;;5095293;28;20099;-65
2023/07/22 02:26:20;;;;;;;22.30;8.93;;;14.50;99.90;;;;;;5089317;28;20029;-65
2023/07/22 02:28:48;;;;;;;17.97;8.23;;;14.50;99.90;;;;;;5085968;28;20255;-65
2023/07/22 02:31:13;;;;;;;20.55;8.65;;;14.50;99.90;;;;;;5080603;28;20095;-65
2023/07/22 02:33:39;;;;;;;21.53;9.90;;;14.50;99.90;;;;;;5094947;28;20107;-65
2023/07/22 02:36:05;;;;;;;19.43;8.23;;;14.50;99.90;;;;;;5095566;28;20276;-77
2023/07/22 02:38:31;;;;;;;22.87;8.20;;;14.50;99.90;;;;;;5096995;28;20020;-65
2023/07/22 02:41:06;;;;;;;21.43;8.30;;;14.50;99.90;;;;;;5085557;28;20327;-65
2023/07/22 02:43:32;;;;;;;22.15;8.50;;;14.50;99.90;;;;;;5094551;28;20112;-65
2023/07/22 02:46:03;;;;;;;16.15;7.82;;;14.50;99.90;;;;;;5094413;28;20418;-66
2023/07/22 02:48:33;;;;;;;22.08;8.50;;;14.50;99.90;;;;;;5096774;28;20035;-65
2023/07/22 02:51:06;;;;;;;20.05;7.78;;;14.40;99.90;;;;;;5082323;28;20075;-65
2023/07/22 02:53:33;;;;;;;19.55;9.65;;;14.50;99.90;;;;;;5090425;28;20033;-65
2023/07/22 02:55:59;;;;;;;15.98;7.43;;;14.40;99.90;;;;;;5085843;28;20020;-65
2023/07/22 02:58:25;;;;;;;17.33;7.90;;;14.30;99.90;;;;;;5081723;28;20039;-65
2023/07/22 03:00:51;;;;;;;16.13;6.88;;;14.20;99.90;;;;;;5095764;28;20050;-65
2023/07/22 03:03:18;;;;;;;20.83;7.87;;;14.20;99.90;;;;;;5095348;28;20422;-64
2023/07/22 03:05:45;;;;;;;18.30;7.72;;;14.10;99.90;;;;;;5096379;28;20099;-65
2023/07/22 03:08:10;;;;;;;18.73;7.07;;;14.10;99.90;;;;;;5074946;28;20055;-65
2023/07/22 03:10:36;;;;;;;17.10;7.93;;;14.10;99.90;;;;;;5094837;28;20039;-65
2023/07/22 03:13:03;;;;;;;18.33;7.50;;;14.00;99.90;;;;;;5092922;28;20032;-65
2023/07/22 03:15:29;;;;;;;21.17;8.23;;;14.00;99.90;;;;;;5074051;28;20031;-65
2023/07/22 03:17:56;;;;;;;15.27;6.43;;;14.00;99.90;;;;;;5088119;28;20360;-78
2023/07/22 03:20:23;;;;;;;18.23;7.95;;;14.00;99.90;;;;;;5094701;28;20093;-65
2023/07/22 03:22:49;;;;;;;12.98;7.15;;;14.00;99.90;;;;;;5095476;28;20100;-65
2023/07/22 03:25:16;;;;;;;18.30;7.73;;;14.10;99.90;;;;;;5095376;28;20411;-65
2023/07/22 03:27:44;;;;;;;13.77;6.72;;;14.10;99.90;;;;;;5090867;28;20092;-65
2023/07/22 03:30:15;;;;;;;16.60;7.15;;;14.10;99.90;;;;;;5086496;28;20382;-66
2023/07/22 03:32:42;;;;;;;17.52;6.88;;;14.10;99.90;;;;;;5091375;28;20028;-65
2023/07/22 03:35:11;;;;;;;13.85;6.75;;;14.10;99.90;;;;;;5084842;28;20016;-66
2023/07/22 03:37:38;;;;;;;14.10;7.45;;;14.10;99.90;;;;;;5092442;28;20362;-65
2023/07/22 03:40:08;;;;;;;16.30;7.47;;;14.10;99.90;;;;;;5083259;28;20118;-65
2023/07/22 03:42:34;;;;;;;14.05;6.25;;;14.10;99.90;;;;;;5094762;28;20039;-65
2023/07/22 03:45:01;;;;;;;14.45;6.72;;;14.10;99.90;;;;;;5095616;28;20017;-65
2023/07/22 03:47:26;;;;;;;17.90;6.72;;;14.10;99.90;;;;;;5094413;28;20059;-65
2023/07/22 03:49:52;;;;;;;13.47;6.97;;;14.20;99.90;;;;;;5089452;28;20085;-65
2023/07/22 03:52:18;;;;;;;14.87;6.70;;;14.20;99.90;;;;;;5085938;28;20066;-65
2023/07/22 03:54:44;;;;;;;16.77;7.00;;;14.20;99.90;;;;;;5091498;28;20031;-65
2023/07/22 03:57:10;;;;;;;15.48;6.40;;;14.30;99.90;;;;;;5083347;28;20031;-65
2023/07/22 03:59:36;;;;;;;16.67;6.67;;;14.30;99.90;;;;;;5094690;28;20561;-66
2023/07/22 04:02:02;;;;;;;13.80;5.87;;;14.30;99.90;;;;;;5088436;28;20024;-65
2023/07/22 04:04:28;;;;;;;14.73;6.38;;;14.30;99.90;;;;;;5087414;28;20288;-65
2023/07/22 04:06:54;;;;;;;18.63;7.45;;;14.30;99.90;;;;;;5091883;28;20431;-65
2023/07/22 04:09:19;;;;;;;11.60;6.57;;;14.30;99.90;;;;;;5089569;28;20111;-66
2023/07/22 04:11:45;;;;;;;15.47;6.90;;;14.30;99.90;;;;;;5097618;28;20027;-65
2023/07/22 04:14:12;;;;;;;18.73;7.13;;;14.40;99.90;;;;;;5095113;28;20101;-65
2023/07/22 04:16:38;;;;;;;15.02;6.68;;;14.40;99.90;;;;;;5081766;28;20058;-67
2023/07/22 04:19:04;;;;;;;13.10;7.13;;;14.40;99.90;;;;;;5093564;28;20024;-79
2023/07/22 04:21:30;;;;;;;13.93;6.10;;;14.40;99.90;;;;;;5094778;28;20035;-65
2023/07/22 04:23:55;;;;;;;10.20;5.63;;;14.50;99.90;;;;;;5089310;28;20016;-65
2023/07/22 04:26:21;;;;;;;10.50;5.30;;;14.50;99.90;;;;;;5083665;28;20037;-65
2023/07/22 04:28:47;;;;;;;10.43;5.83;;;14.50;99.90;;;;;;5087221;28;20032;-65
2023/07/22 04:31:12;;;;;;;14.00;5.57;;;14.60;99.90;;;;;;5079061;28;20031;-65
2023/07/22 04:33:38;;;;;;;12.37;5.53;;;14.60;99.90;;;;;;5088396;28;20020;-65
2023/07/22 04:36:04;;;;;;;8.97;4.93;;;14.60;99.90;;;;;;5090943;28;20016;-65
2023/07/22 04:38:29;;;;;;;11.10;5.23;;;14.60;99.90;;;;;;5093912;28;20326;-65
2023/07/22 04:40:55;;;;;;;11.17;5.37;;;14.60;99.90;;;;;;5083811;28;20054;-65
2023/07/22 04:43:21;;;;;;;10.73;4.90;;;14.60;99.90;;;;;;5094176;28;20437;-79
2023/07/22 04:45:49;;;;;;;10.63;5.33;;;14.70;99.90;;;;;;5094306;28;20032;-65
2023/07/22 04:48:17;;;;;;;11.38;5.30;;;14.60;99.90;;;;;;5090200;28;20100;-65
2023/07/22 04:50:45;;;;;;;11.70;5.00;;;14.70;99.90;;;;;;5088210;28;20052;-65
2023/07/22 04:53:13;;;;;;;9.75;4.75;;;14.70;99.90;;;;;;5093811;28;20016;-65
2023/07/22 04:55:39;;;;;;;9.18;4.93;;;14.80;99.90;;;;;;5094641;28;20035;-65
2023/07/22 04:58:05;;;;;;;8.93;4.68;;;14.80;99.90;;;;;;5091953;28;20028;-78
2023/07/22 05:00:31;;;;;;;8.77;4.33;;;14.80;99.90;;;;;;5090565;28;20069;-65
2023/07/22 05:02:57;;;;;;;11.43;5.85;;;14.90;99.90;;;;;;5094105;28;20040;-65
2023/07/22 05:05:23;;;;;;;7.03;3.93;;;14.90;99.90;;;;;;5094449;28;20020;-65
2023/07/22 05:07:49;;;;;;;12.07;4.43;;;15.00;99.90;;;;;;5086504;28;20020;-65
2023/07/22 05:10:15;;;;;;;8.13;3.88;;;15.00;99.90;;;;;;5093083;28;20188;-78
2023/07/22 05:12:42;;;;;;;12.70;3.92;;;15.00;99.90;;;;;;5084009;28;20043;-65
2023/07/22 05:15:09;;;;;;;;;;;15.00;99.90;;;;;;5089699;28;20032;-65
2023/07/22 05:17:34;;;;;;;6.93;3.83;;;15.00;99.90;;;;;;5077005;28;20007;-79
2023/07/22 05:20:00;;;;;;;7.17;3.23;;;15.00;99.90;;;;;;5092743;28;20107;-65
2023/07/22 05:22:26;;;;;;;9.10;3.63;;;15.10;99.90;;;;;;5094593;28;20032;-65
2023/07/22 05:24:51;;;;;;;5.20;3.10;;;15.10;99.90;;;;;;5080354;28;20036;-65
2023/07/22 05:27:18;;;;;;;6.90;3.63;;;15.10;99.90;;;;;;5096862;28;20067;-67
2023/07/22 05:29:44;;;;;;;6.22;3.08;;;15.20;99.90;;;;;;5097364;28;20036;-65
2023/07/22 05:32:10;;;;;;;9.75;3.30;;;15.20;99.90;;;;;;5098406;28;20346;-65
2023/07/22 05:34:36;;;;;;;7.27;4.00;;;15.20;99.90;;;;;;5096641;28;20046;-67
2023/07/22 05:37:02;;;;;;;6.40;3.23;;;15.20;99.90;;;;;;5101385;28;20280;-65
2023/07/22 05:39:27;;;;;;;8.13;4.07;;;15.20;99.90;;;;;;5096450;28;20028;-65
2023/07/22 05:41:53;;;;;;;7.60;4.47;;;15.30;99.90;;;;;;5097969;28;20093;-65
2023/07/22 05:44:19;;;;;;;8.70;4.27;;;15.40;99.90;;;;;;5097507;28;20070;-65
2023/07/22 05:46:45;;;;;;;9.37;5.10;;;15.40;99.90;;;;;;5094974;28;20027;-65
2023/07/22 05:49:10;;;;;;;12.60;4.83;;;15.50;99.90;;;;;;5089152;28;20024;-65
2023/07/22 05:51:37;;;;;;;14.27;5.67;;;15.50;99.90;;;;;;5096985;28;20040;-66
2023/07/22 05:54:03;;;;;;;11.52;6.20;;;15.60;99.90;;;;;;5097915;28;20020;-65
2023/07/22 05:56:28;;;;;;;11.80;5.93;;;15.70;99.90;;;;;;5084374;28;20035;-65
2023/07/22 05:58:54;;;;;;;12.80;6.50;;;15.70;99.90;;;;;;5087638;28;20039;-65
2023/07/22 06:01:20;;;;;;;15.00;7.23;;;15.90;99.90;;;;;;5096192;28;20024;-65
2023/07/22 06:03:45;;;;;;;17.73;6.73;;;15.90;99.90;;;;;;5097295;28;20131;-65
2023/07/22 06:06:11;;;;;;;15.40;6.97;;;16.00;99.90;;;;;;5096712;28;20032;-65
2023/07/22 06:08:37;;;;;;;17.53;7.00;;;16.00;99.90;;;;;;5096819;28;20099;-65
2023/07/22 06:11:02;;;;;;;22.73;7.17;;;16.10;99.90;;;;;;5086437;28;20476;-65
2023/07/22 06:13:28;;;;;;;34.47;7.77;;;16.10;99.90;;;;;;5091153;28;20036;-65
2023/07/22 06:15:54;;;;;;;17.10;7.67;;;16.20;99.90;;;;;;5090662;28;20027;-66
2023/07/22 06:18:19;;;;;;;19.23;7.90;;;16.20;99.90;;;;;;5077247;28;20028;-65
2023/07/22 06:20:45;;;;;;;27.40;9.37;;;16.30;99.90;;;;;;5097349;28;20085;-66
2023/07/22 06:23:11;;;;;;;16.58;8.65;;;16.30;99.90;;;;;;5096587;28;20115;-66
2023/07/22 06:25:37;;;;;;;25.70;9.03;;;16.40;99.90;;;;;;5095845;28;20418;-65
2023/07/22 06:28:02;;;;;;;20.77;9.03;;;16.50;99.90;;;;;;5089917;28;20020;-79
2023/07/22 06:30:28;;;;;;;25.87;8.80;;;16.50;99.90;;;;;;5096246;28;20115;-66
2023/07/22 06:32:54;;;;;;;20.53;8.73;;;16.60;99.90;;;;;;5088528;28;20111;-65
2023/07/22 06:35:20;;;;;;;20.48;8.88;;;16.60;99.90;;;;;;5095795;28;20082;-65
2023/07/22 06:37:46;;;;;;;26.00;9.23;;;16.70;99.90;;;;;;5077943;28;20031;-66
2023/07/22 06:40:12;;;;;;;16.63;8.17;;;16.80;99.90;;;;;;5078001;28;20024;-66
2023/07/22 06:42:37;;;;;;;19.42;8.73;;;16.90;99.90;;;;;;5094317;28;20024;-66
2023/07/22 06:45:04;;;;;;;28.03;9.30;;;16.90;99.90;;;;;;5083714;28;20361;-67
2023/07/22 06:47:30;;;;;;;19.27;9.98;;;17.00;99.90;;;;;;5097077;28;20016;-67
2023/07/22 06:49:55;;;;;;;18.83;8.90;;;17.00;99.90;;;;;;5092579;28;20441;-66
2023/07/22 06:52:21;;;;;;;18.37;7.90;;;17.10;99.90;;;;;;5077755;28;20052;-67
2023/07/22 06:54:47;;;;;;;17.50;7.83;;;17.10;99.90;;;;;;5095367;28;20344;-66
2023/07/22 06:57:12;;;;;;;18.23;8.27;;;17.10;99.90;;;;;;5096652;28;20031;-79
2023/07/22 06:59:38;;;;;;;25.63;10.20;;;17.20;99.90;;;;;;5073010;28;20111;-66
2023/07/22 07:02:07;;;;;;;18.10;8.83;;;17.20;99.90;;;;;;5082310;28;20020;-74
2023/07/22 07:04:33;;;;;;;24.20;9.05;;;17.20;99.90;;;;;;5093733;28;20016;-66
2023/07/22 07:06:59;;;;;;;17.30;8.80;;;17.20;99.90;;;;;;5092853;28;20106;-66
2023/07/22 07:09:25;;;;;;;19.77;9.65;;;17.20;99.90;;;;;;5090303;28;20100;-66
2023/07/22 07:11:51;;;;;;;23.37;9.60;;;17.30;99.90;;;;;;5084804;28;20411;-67
2023/07/22 07:14:17;;;;;;;22.85;10.82;;;17.30;99.90;;;;;;5085699;28;20431;-67
2023/07/22 07:16:44;;;;;;;19.00;8.93;;;17.30;99.90;;;;;;5095931;28;20115;-66
2023/07/22 07:19:10;;;;;;;19.38;8.65;;;17.30;99.90;;;;;;5085732;28;20154;-67
2023/07/22 07:21:35;;;;;;;21.97;10.53;;;17.30;99.90;;;;;;5091993;28;20172;-67
2023/07/22 07:24:01;;;;;;;19.17;9.10;;;17.40;99.90;;;;;;5085709;28;20281;-67
2023/07/22 07:26:27;;;;;;;20.87;8.90;;;17.50;99.90;;;;;;5087713;28;20020;-66
2023/07/22 07:28:53;;;;;;;16.23;9.23;;;17.60;99.90;;;;;;5087577;28;20094;-79
2023/07/22 07:31:19;;;;;;;24.20;10.50;;;17.50;99.90;;;;;;5074411;28;20059;-68
2023/07/22 07:33:45;;;;;;;22.10;9.50;;;17.50;99.90;;;;;;5095152;28;20024;-67
2023/07/22 07:36:11;;;;;;;20.67;10.87;;;17.60;99.90;;;;;;5093457;28;20035;-66
2023/07/22 07:38:36;;;;;;;17.93;9.77;;;17.60;99.90;;;;;;5099645;28;20427;-67
2023/07/22 07:41:04;;;;;;;24.90;9.33;;;17.60;99.90;;;;;;5095146;28;20334;-67
2023/07/22 07:43:30;;;;;;;25.75;10.48;;;17.60;99.90;;;;;;5095310;28;20012;-67
2023/07/22 07:46:22;;;;;;;20.40;8.80;;;17.70;99.90;;;;;;5094850;28;20031;-79
2023/07/22 07:48:52;;;;;;;22.95;10.73;;;17.70;99.90;;;;;;5085191;28;20102;-72
2023/07/22 07:51:19;;;;;;;29.63;10.52;;;17.80;99.90;;;;;;5094995;28;20052;-68
2023/07/22 07:53:49;;;;;;;27.33;10.43;;;17.80;99.90;;;;;;5094659;28;20106;-67
2023/07/22 07:56:16;;;;;;;20.83;9.82;;;17.90;99.90;;;;;;5095034;28;20020;-67
2023/07/22 07:58:43;;;;;;;26.88;10.02;;;18.00;99.90;;;;;;5095116;28;20042;-80
2023/07/22 08:01:09;;;;;;;20.75;9.50;;;18.10;99.90;;;;;;5095163;28;20027;-68
2023/07/22 08:03:38;;;;;;;19.30;9.30;;;18.10;99.90;;;;;;5094782;28;20016;-66
2023/07/22 08:06:04;;;;;;;16.67;8.57;;;18.10;99.90;;;;;;5094565;28;20032;-67
2023/07/22 08:08:30;;;;;;;21.23;9.32;;;18.20;99.90;;;;;;5083672;28;20020;-66
2023/07/22 08:11:07;;;;;;;18.27;8.63;;;18.20;99.90;;;;;;5095165;28;20119;-66
2023/07/22 08:13:33;;;;;;;20.10;9.05;;;18.30;99.90;;;;;;5094697;28;20317;-67
2023/07/22 08:16:01;;;;;;;20.98;9.38;;;18.30;99.90;;;;;;5094776;28;20020;-66
2023/07/22 08:18:27;;;;;;;15.52;8.48;;;18.40;99.90;;;;;;5094122;28;20073;-67
2023/07/22 08:20:53;;;;;;;17.97;9.17;;;18.50;99.90;;;;;;5094515;28;20016;-66
2023/07/22 08:23:19;;;;;;;19.70;8.95;;;18.50;99.90;;;;;;5095138;28;20028;-66
2023/07/22 08:25:45;;;;;;;12.88;6.50;;;18.50;99.90;;;;;;5092211;28;20031;-65
2023/07/22 08:28:11;;;;;;;18.87;8.17;;;18.50;99.90;;;;;;5074900;28;20020;-67
2023/07/22 08:30:38;;;;;;;13.73;7.13;;;18.60;99.90;;;;;;5087629;28;20104;-66
2023/07/22 08:33:04;;;;;;;16.05;7.90;;;18.60;99.90;;;;;;5080897;28;20047;-67
2023/07/22 08:35:29;;;;;;;17.97;8.10;;;18.70;99.90;;;;;;5094988;28;20378;-68
2023/07/22 08:37:55;;;;;;;15.80;8.13;;;18.70;99.90;;;;;;5094568;28;20020;-67
2023/07/22 08:40:21;;;;;;;20.10;8.70;;;18.80;99.90;;;;;;5094427;28;20069;-80
2023/07/22 08:42:50;;;;;;;15.23;7.57;;;18.90;99.90;;;;;;5092050;28;20072;-67
2023/07/22 08:45:16;;;;;;;16.17;9.15;;;19.10;99.90;;;;;;5076355;28;20024;-67
2023/07/22 08:47:46;;;;;;;17.58;9.27;;;19.20;99.90;;;;;;5071051;28;20020;-66
2023/07/22 08:50:18;;;;;;;20.02;9.90;;;19.50;99.90;;;;;;5087005;28;20036;-67
2023/07/22 08:52:45;;;;;;;18.85;9.63;;;19.60;99.90;;;;;;5088411;28;20031;-67
2023/07/22 08:55:11;;;;;;;14.45;8.32;;;19.80;99.90;;;;;;5093465;28;20036;-68
2023/07/22 08:57:38;;;;;;;17.58;8.85;;;19.80;99.90;;;;;;5092460;28;20053;-67
2023/07/22 09:00:06;;;;;;;19.05;8.55;;;19.80;99.90;;;;;;5081468;28;20028;-77
2023/07/22 09:02:33;;;;;;;15.20;8.30;;;19.60;99.90;;;;;;5084118;28;20048;-65
2023/07/22 09:04:59;;;;;;;16.92;9.18;;;19.50;99.90;;;;;;5081115;28;20023;-66
2023/07/22 09:07:25;;;;;;;12.63;8.27;;;19.20;99.90;;;;;;5086017;28;20033;-66
2023/07/22 09:09:52;;;;;;;14.20;8.63;;;19.00;99.90;;;;;;5079536;28;20024;-65
2023/07/22 09:12:20;;;;;;;18.83;9.07;;;18.80;99.90;;;;;;5080013;28;20043;-66
2023/07/22 09:14:47;;;;;;;16.38;8.93;;;18.70;99.90;;;;;;5089247;28;20036;-66
2023/07/22 09:17:13;;;;;;;14.75;8.35;;;18.60;99.90;;;;;;5093423;28;20491;-66
2023/07/22 09:19:39;;;;;;;16.90;8.97;;;18.50;99.90;;;;;;5093827;28;20028;-66
2023/07/22 09:22:05;;;;;;;10.80;6.77;;;18.30;99.90;;;;;;5092975;28;20341;-82
2023/07/22 09:24:31;;;;;;;9.97;5.93;;;18.20;99.90;;;;;;5074527;28;20032;-66
2023/07/22 09:26:58;;;;;;;8.05;5.50;;;18.00;99.90;;;;;;5086835;28;20253;-65
2023/07/22 09:29:33;;;;;;;;;;;17.90;99.90;;;;;;5081418;28;20040;-67
2023/07/22 09:31:58;;;;;;;12.77;5.70;;;17.80;99.90;;;;;;5075830;28;19904;-66
2023/07/22 09:34:25;;;;;;;9.80;5.33;;;17.80;99.90;;;;;;5092212;28;20016;-66
2023/07/22 09:36:56;;;;;;;11.80;6.28;;;17.70;99.90;;;;;;5094059;28;20055;-66
2023/07/22 09:39:23;;;;;;;9.45;5.70;;;17.70;99.90;;;;;;5091844;28;20486;-66
2023/07/22 09:41:49;;;;;;;;;;;17.70;99.90;;;;;;5088298;28;20039;-66
2023/07/22 09:44:15;;;;;;;13.18;5.40;;;17.70;99.90;;;;;;5083456;28;19908;-67
2023/07/22 09:46:41;;;;;;;9.40;5.10;;;17.70;99.90;;;;;;5075634;28;20020;-66
2023/07/22 09:49:09;;;;;;;9.90;4.85;;;17.70;99.90;;;;;;5088888;28;20060;-85
2023/07/22 09:51:39;;;;;;;8.82;4.32;;;17.70;99.90;;;;;;5085611;28;20043;-66
2023/07/22 09:54:06;;;;;;;10.10;4.30;;;17.70;99.90;;;;;;5082866;28;20024;-82
2023/07/22 09:56:42;;;;;;;5.88;4.13;;;17.70;99.90;;;;;;5090312;28;20047;-66
2023/07/22 09:59:10;;;;;;;4.72;3.30;;;17.80;99.90;;;;;;5073579;28;20399;-71
2023/07/22 10:01:39;;;;;;;4.15;2.53;;;17.80;99.90;;;;;;5087071;28;20032;-66
2023/07/22 10:04:05;;;;;;;6.13;3.42;;;17.90;99.90;;;;;;5088069;28;20055;-75
2023/07/22 10:06:32;;;;;;;5.72;2.90;;;18.00;99.90;;;;;;5091378;28;20029;-65
2023/07/22 10:09:07;;;;;;;;;;;18.00;99.90;;;;;;5094455;28;20027;-71
2023/07/22 10:11:34;;;;;;;3.83;2.25;;;18.00;99.90;;;;;;5089775;28;20320;-65
2023/07/22 10:14:04;;;;;;;5.25;2.20;;;18.00;99.90;;;;;;5091898;28;20035;-66
2023/07/22 10:16:30;;;;;;;3.63;2.20;;;18.00;99.90;;;;;;5086809;28;20148;-67
2023/07/22 10:18:57;;;;;;;3.65;2.58;;;17.90;99.90;;;;;;5084260;28;20513;-66
2023/07/22 10:21:25;;;;;;;5.55;3.03;;;17.90;99.90;;;;;;5086190;28;20032;-79
2023/07/22 10:23:51;;;;;;;3.25;2.40;;;17.80;99.90;;;;;;5089668;28;20473;-80
2023/07/22 10:26:18;;;;;;;;;;;17.80;99.90;;;;;;5087630;28;20101;-66
2023/07/22 10:28:47;;;;;;;;;;;17.80;99.90;;;;;;5090239;28;19908;-66
2023/07/22 10:31:19;;;;;;;3.95;2.47;;;17.70;99.90;;;;;;5095467;28;19923;-66
2023/07/22 10:33:48;;;;;;;7.35;2.42;;;17.60;99.90;;;;;;5087346;28;20031;-65
2023/07/22 10:36:18;;;;;;;4.82;2.20;;;17.50;99.90;;;;;;5089469;28;20016;-66
2023/07/22 10:38:54;;;;;;;7.90;2.45;;;17.30;99.90;;;;;;5084368;28;20033;-66
2023/07/22 10:41:21;;;;;;;2.38;2.00;;;17.20;99.90;;;;;;5085399;28;20030;-67
2023/07/22 10:43:59;;;;;;;6.85;1.60;;;17.10;99.90;;;;;;5084970;28;20031;-66
2023/07/22 10:46:32;;;;;;;5.53;2.30;;;16.90;99.90;;;;;;5073541;28;20410;-67
2023/07/22 10:49:09;;;;;;;3.20;2.13;;;16.80;99.90;;;;;;5094402;28;20406;-66
2023/07/22 10:51:37;;;;;;;5.88;1.90;;;16.70;99.90;;;;;;5073485;28;20044;-82
2023/07/22 10:54:03;;;;;;;3.00;1.60;;;16.60;99.90;;;;;;5088060;28;20415;-67
2023/07/22 10:56:28;;;;;;;1.98;1.60;;;16.50;99.90;;;;;;5095816;28;20032;-66
2023/07/22 10:58:56;;;;;;;3.57;1.93;;;16.50;99.90;;;;;;5095198;28;20035;-66
2023/07/22 11:01:27;;;;;;;5.82;1.77;;;16.50;99.90;;;;;;5093218;28;20115;-66
2023/07/22 11:04:34;;;;;;;3.40;1.77;;;16.40;99.90;;;;;;5094609;28;20024;-66
2023/07/22 11:07:04;;;;;;;4.78;1.63;;;16.40;99.90;;;;;;5066368;28;20074;-66
2023/07/22 11:09:34;;;;;;;2.30;1.80;;;16.40;99.90;;;;;;5092724;28;20456;-66
2023/07/22 11:12:02;;;;;;;4.72;1.85;;;16.30;99.90;;;;;;5091113;28;20032;-67
2023/07/22 11:14:37;;;;;;;2.45;1.67;;;16.40;99.90;;;;;;5093479;28;20039;-66
2023/07/22 11:17:04;;;;;;;3.17;2.28;;;16.40;99.90;;;;;;5085245;28;20048;-66
2023/07/22 11:19:30;;;;;;;2.80;2.28;;;16.50;99.90;;;;;;5087339;28;20035;-66
2023/07/22 11:21:56;;;;;;;6.18;2.50;;;16.50;99.90;;;;;;5094610;28;20050;-66
2023/07/22 11:24:23;;;;;;;7.17;2.30;;;16.70;99.90;;;;;;5094237;28;20047;-67
2023/07/22 11:26:51;;;;;;;3.38;2.03;;;16.80;99.90;;;;;;5080012;28;20097;-67
2023/07/22 11:29:17;;;;;;;6.22;2.42;;;16.90;99.90;;;;;;5092116;28;20525;-86
2023/07/22 11:31:45;;;;;;;4.07;2.35;;;17.00;99.90;;;;;;5093656;28;20049;-66
2023/07/22 11:34:16;;;;;;;5.35;2.17;;;17.20;99.90;;;;;;5076592;28;20861;-66
2023/07/22 11:36:42;;;;;;;6.15;2.15;;;17.60;99.90;;;;;;5094668;28;20035;-67
2023/07/22 11:39:14;;;;;;;7.05;2.95;;;18.00;99.90;;;;;;5093322;28;20028;-67
2023/07/22 11:41:43;;;;;;;3.25;1.67;;;18.40;99.90;;;;;;5095071;28;20024;-65
2023/07/22 11:44:12;;;;;;;3.53;1.88;;;18.60;99.90;;;;;;5094479;28;20027;-67
2023/07/22 11:47:02;;;;;;;2.97;2.10;;;18.90;99.90;;;;;;5064961;28;20342;-66
2023/07/22 11:49:29;;;;;;;6.72;2.03;;;19.30;99.90;;;;;;5092505;28;20029;-65
2023/07/22 11:52:07;;;;;;;4.20;2.20;;;19.40;99.90;;;;;;5093407;28;20040;-66
2023/07/22 11:54:34;;;;;;;5.47;2.00;;;19.50;99.90;;;;;;5092841;28;20039;-86
2023/07/22 11:57:13;;;;;;;3.92;1.67;;;19.60;99.90;;;;;;5093072;28;20107;-66
2023/07/22 11:59:44;;;;;;;3.85;1.88;;;19.60;99.90;;;;;;5092958;28;20028;-66
2023/07/22 12:02:17;;;;;;;5.75;1.92;;;19.60;99.90;;;;;;5094161;28;20016;-66
2023/07/22 12:04:43;;;;;;;4.35;2.00;;;19.60;99.90;;;;;;5093933;28;20107;-66
2023/07/22 12:07:34;;;;;;;4.07;1.40;;;19.60;99.90;;;;;;5090762;28;20174;-67
2023/07/22 12:10:03;;;;;;;2.97;1.15;;;19.60;99.90;;;;;;5082047;28;20092;-67
2023/07/22 12:12:37;;;;;;;1.80;1.40;;;19.60;99.90;;;;;;5090765;28;20053;-66
2023/07/22 12:15:15;;;;;;;4.20;1.40;;;19.60;99.90;;;;;;5075013;28;20326;-66
2023/07/22 12:18:04;;;;;;;4.53;1.58;;;19.50;99.90;;;;;;5088026;28;20096;-66
2023/07/22 12:20:35;;;;;;;1.90;1.42;;;19.50;99.90;;;;;;5077298;28;20330;-66
2023/07/22 12:23:01;;;;;;;3.45;1.48;;;19.50;99.90;;;;;;5093133;28;20055;-66
2023/07/22 12:25:27;;;;;;;1.70;1.38;;;19.50;99.90;;;;;;5092952;28;20059;-79
2023/07/22 12:27:53;;;;;;;2.70;1.10;;;19.50;99.90;;;;;;5084265;28;20028;-65
2023/07/22 12:30:19;;;;;;;2.67;1.10;;;19.40;99.90;;;;;;5090260;28;20024;-66
2023/07/22 12:32:45;;;;;;;1.35;1.05;;;19.40;99.90;;;;;;5089950;28;20020;-83
2023/07/22 12:35:13;;;;;;;4.00;1.40;;;19.40;99.90;;;;;;5093558;28;20043;-67
2023/07/22 12:37:39;;;;;;;4.32;1.25;;;19.40;99.90;;;;;;5093062;28;20295;-66
2023/07/22 12:40:07;;;;;;;1.50;0.98;;;19.40;99.90;;;;;;5083955;28;20035;-83
2023/07/22 12:42:34;;;;;;;3.90;1.13;;;19.30;99.90;;;;;;5087727;28;20446;-82
2023/07/22 12:45:00;;;;;;;1.00;0.85;;;19.30;99.90;;;;;;5092831;28;20027;-66